Time;durP1;ratioP1;P1;durP2;ratioP2;P2;SDS_P1;SDS_P2;PMS_P1;PMS_P2;Temp;Humidity;BMP_temperature;BMP_pressure;BME280_temperature;BME280_humidity;BME280_pressure;Samples;Min_cycle;Max_cycle;Signal;HPM_P1;HPM_P2
2023/08/23 00:01:31;;;;;;;7.78;6.95;;;;;;;;;;5077120;27;20428;-65
2023/08/23 00:04:00;;;;;;;7.90;7.10;;;;;;;;;;5075260;28;20925;-63
2023/08/23 00:06:27;;;;;;;9.32;7.60;;;;;;;;;;5078198;28;20427;-63
2023/08/23 00:08:57;;;;;;;8.77;7.97;;;;;;;;;;5047257;28;20430;-63
2023/08/23 00:11:24;;;;;;;7.97;7.00;;;;;;;;;;5079978;28;21529;-63
2023/08/23 00:13:51;;;;;;;10.48;7.00;;;;;;;;;;5081947;28;20453;-63
2023/08/23 00:16:18;;;;;;;9.30;7.07;;;;;;;;;;5078918;28;20486;-63
2023/08/23 00:18:46;;;;;;;8.82;7.55;;;;;;;;;;5083759;28;20759;-63
2023/08/23 00:21:13;;;;;;;8.10;7.00;;;;;;;;;;5077612;28;20507;-63
2023/08/23 00:23:40;;;;;;;9.67;7.07;;;;;;;;;;5077839;28;20454;-64
2023/08/23 00:26:07;;;;;;;7.90;6.85;;;;;;;;;;5080917;28;20426;-64
2023/08/23 00:28:34;;;;;;;8.02;7.20;;;;;;;;;;5079531;28;20434;-63
2023/08/23 00:31:04;;;;;;;12.75;7.85;;;;;;;;;;5083780;28;21163;-65
2023/08/23 00:33:31;;;;;;;10.55;8.60;;;;;;;;;;5077619;28;21990;-64
2023/08/23 00:35:59;;;;;;;10.50;8.10;;;;;;;;;;5079799;28;20544;-63
2023/08/23 00:38:29;;;;;;;9.05;8.05;;;;;;;;;;5082284;28;20548;-63
2023/08/23 00:40:57;;;;;;;10.00;7.55;;;;;;;;;;5080342;27;20513;-63
2023/08/23 00:43:24;;;;;;;9.15;7.72;;;;;;;;;;5081229;28;20428;-63
2023/08/23 00:45:51;;;;;;;10.73;7.88;;;;;;;;;;5077236;28;20998;-63
2023/08/23 00:48:18;;;;;;;10.70;7.97;;;;;;;;;;5081257;28;20551;-63
2023/08/23 00:50:45;;;;;;;14.32;7.70;;;;;;;;;;5081580;28;20432;-63
2023/08/23 00:53:13;;;;;;;9.85;8.13;;;;;;;;;;5064248;28;20586;-63
2023/08/23 00:55:41;;;;;;;7.88;7.13;;;;;;;;;;5080787;28;20444;-63
2023/08/23 00:58:08;;;;;;;8.40;7.57;;;;;;;;;;5081792;28;20434;-63
2023/08/23 01:00:35;;;;;;;9.48;8.00;;;;;;;;;;5080981;27;20442;-64
2023/08/23 01:03:06;;;;;;;8.15;7.43;;;;;;;;;;5078107;28;20493;-63
2023/08/23 01:05:40;;;;;;;8.10;7.13;;;;;;;;;;5062683;28;20437;-63
2023/08/23 01:08:25;;;;;;;11.32;7.22;;;;;;;;;;5078007;28;20426;-63
2023/08/23 01:11:02;;;;;;;7.75;6.55;;;;;;;;;;5079512;28;20800;-63
2023/08/23 01:13:52;;;;;;;7.82;7.03;;;;;;;;;;5076273;28;20536;-63
2023/08/23 01:16:20;;;;;;;7.93;7.07;;;;;;;;;;5079258;28;20426;-63
2023/08/23 01:18:47;;;;;;;8.98;7.22;;;;;;;;;;5077681;28;20435;-64
2023/08/23 01:21:19;;;;;;;8.65;7.43;;;;;;;;;;5079949;28;20524;-64
2023/08/23 01:23:46;;;;;;;10.70;7.72;;;;;;;;;;5078942;28;20561;-64
2023/08/23 01:26:13;;;;;;;8.52;7.68;;;;;;;;;;5079920;28;20456;-64
2023/08/23 01:28:40;;;;;;;9.10;7.00;;;;;;;;;;5078747;28;20430;-63
2023/08/23 01:31:08;;;;;;;8.18;7.30;;;;;;;;;;5076852;28;20427;-63
2023/08/23 01:33:42;;;;;;;7.93;7.22;;;;;;;;;;5078143;28;20562;-63
2023/08/23 01:36:26;;;;;;;8.32;7.43;;;;;;;;;;5078179;28;20433;-63
2023/08/23 01:38:53;;;;;;;11.00;8.03;;;;;;;;;;5078942;28;20521;-64
2023/08/23 01:41:20;;;;;;;8.47;7.57;;;;;;;;;;5077701;28;20427;-63
2023/08/23 01:43:48;;;;;;;8.77;7.85;;;;;;;;;;5078689;28;20415;-63
2023/08/23 01:46:15;;;;;;;8.90;8.07;;;;;;;;;;5061318;28;20428;-63
2023/08/23 01:48:42;;;;;;;9.43;7.97;;;;;;;;;;5078895;28;20430;-63
2023/08/23 01:51:09;;;;;;;11.23;8.48;;;;;;;;;;5081078;28;20967;-63
2023/08/23 01:53:37;;;;;;;8.85;7.95;;;;;;;;;;5080260;28;20434;-63
2023/08/23 01:56:04;;;;;;;8.90;7.97;;;;;;;;;;5082716;28;20432;-63
2023/08/23 01:58:31;;;;;;;8.80;7.97;;;;;;;;;;5080812;28;20429;-63
2023/08/23 02:00:59;;;;;;;8.27;7.47;;;;;;;;;;5085110;28;20821;-64
2023/08/23 02:03:26;;;;;;;8.90;8.10;;;;;;;;;;5071428;28;20826;-63
2023/08/23 02:05:59;;;;;;;11.25;9.95;;;;;;;;;;5082445;28;20425;-63
2023/08/23 02:08:26;;;;;;;10.48;9.50;;;;;;;;;;5080039;28;20595;-63
2023/08/23 02:10:53;;;;;;;12.00;10.35;;;;;;;;;;5077060;28;20437;-65
2023/08/23 02:13:20;;;;;;;11.40;9.37;;;;;;;;;;5080726;28;20438;-63
2023/08/23 02:15:48;;;;;;;10.70;9.23;;;;;;;;;;5081544;27;20922;-64
2023/08/23 02:18:15;;;;;;;10.93;9.82;;;;;;;;;;5084610;28;20530;-63
2023/08/23 02:20:44;;;;;;;12.65;9.82;;;;;;;;;;5072906;27;20427;-64
2023/08/23 02:23:11;;;;;;;10.52;9.48;;;;;;;;;;5084949;28;20468;-64
2023/08/23 02:25:38;;;;;;;10.00;8.60;;;;;;;;;;5083362;28;20831;-64
2023/08/23 02:28:05;;;;;;;9.70;8.70;;;;;;;;;;5082135;28;20437;-64
2023/08/23 02:30:32;;;;;;;11.73;8.13;;;;;;;;;;5083465;27;20437;-64
2023/08/23 02:32:59;;;;;;;9.43;7.67;;;;;;;;;;5081452;27;20436;-64
2023/08/23 02:35:27;;;;;;;8.50;7.43;;;;;;;;;;5078282;28;20445;-64
2023/08/23 02:37:54;;;;;;;9.65;7.63;;;;;;;;;;5082497;28;20427;-64
2023/08/23 02:40:22;;;;;;;9.32;8.02;;;;;;;;;;5077934;28;20540;-64
2023/08/23 02:42:49;;;;;;;9.27;7.68;;;;;;;;;;5079217;27;20427;-65
2023/08/23 02:45:16;;;;;;;8.60;7.70;;;;;;;;;;5065398;28;20472;-64
2023/08/23 02:47:43;;;;;;;9.68;8.68;;;;;;;;;;5080443;28;20438;-64
2023/08/23 02:50:10;;;;;;;9.77;8.88;;;;;;;;;;5083138;28;20561;-64
2023/08/23 02:52:38;;;;;;;9.40;8.40;;;;;;;;;;5078551;28;20457;-64
2023/08/23 02:55:05;;;;;;;9.13;8.13;;;;;;;;;;5077983;28;20453;-64
2023/08/23 02:57:32;;;;;;;9.75;8.77;;;;;;;;;;5078492;28;20430;-64
2023/08/23 02:59:59;;;;;;;10.25;9.15;;;;;;;;;;5080579;27;20424;-64
2023/08/23 03:02:26;;;;;;;8.80;8.00;;;;;;;;;;5064026;28;20514;-64
2023/08/23 03:04:53;;;;;;;8.23;7.33;;;;;;;;;;5079719;28;20430;-64
2023/08/23 03:07:21;;;;;;;9.37;7.90;;;;;;;;;;5078996;28;21302;-64
2023/08/23 03:09:48;;;;;;;9.38;7.43;;;;;;;;;;5077546;28;20444;-64
2023/08/23 03:12:15;;;;;;;8.07;7.43;;;;;;;;;;5077781;28;20429;-64
2023/08/23 03:14:42;;;;;;;8.18;7.38;;;;;;;;;;5080965;28;20428;-64
2023/08/23 03:17:09;;;;;;;8.60;7.78;;;;;;;;;;5082413;28;20950;-66
2023/08/23 03:19:37;;;;;;;10.45;8.95;;;;;;;;;;5081263;28;20426;-65
2023/08/23 03:22:04;;;;;;;10.90;9.25;;;;;;;;;;5080577;28;21042;-65
2023/08/23 03:24:35;;;;;;;11.20;10.02;;;;;;;;;;5078859;28;20432;-65
2023/08/23 03:27:02;;;;;;;10.00;9.00;;;;;;;;;;5078839;28;20428;-65
2023/08/23 03:29:30;;;;;;;10.43;9.38;;;;;;;;;;5082050;28;20559;-65
2023/08/23 03:31:57;;;;;;;11.60;10.07;;;;;;;;;;5082158;28;20507;-65
2023/08/23 03:34:24;;;;;;;10.98;9.45;;;;;;;;;;5081387;28;21072;-65
2023/08/23 03:36:54;;;;;;;11.70;10.15;;;;;;;;;;5079952;28;20432;-65
2023/08/23 03:39:21;;;;;;;11.38;9.82;;;;;;;;;;5081581;27;20429;-65
2023/08/23 03:41:48;;;;;;;10.32;9.35;;;;;;;;;;5079032;28;21475;-65
2023/08/23 03:44:18;;;;;;;10.93;9.40;;;;;;;;;;5083601;28;20424;-65
2023/08/23 03:46:48;;;;;;;10.65;9.27;;;;;;;;;;5079188;28;20432;-65
2023/08/23 03:49:16;;;;;;;14.23;10.65;;;;;;;;;;5079675;27;20418;-65
2023/08/23 03:51:43;;;;;;;12.30;10.98;;;;;;;;;;5081009;28;21615;-65
2023/08/23 03:54:10;;;;;;;12.85;11.45;;;;;;;;;;5083293;28;20508;-65
2023/08/23 03:56:37;;;;;;;14.10;11.50;;;;;;;;;;5078312;28;20955;-65
2023/08/23 03:59:04;;;;;;;14.97;12.60;;;;;;;;;;5079982;28;20909;-65
2023/08/23 04:01:31;;;;;;;15.07;12.63;;;;;;;;;;5088328;28;20491;-65
2023/08/23 04:03:59;;;;;;;14.50;12.50;;;;;;;;;;5085674;28;20429;-65
2023/08/23 04:06:27;;;;;;;13.98;12.52;;;;;;;;;;5081965;27;20509;-65
2023/08/23 04:08:54;;;;;;;13.85;12.02;;;;;;;;;;5082646;28;20440;-64
2023/08/23 04:11:21;;;;;;;13.32;11.93;;;;;;;;;;5070459;28;20434;-65
2023/08/23 04:13:48;;;;;;;18.50;12.15;;;;;;;;;;5083642;28;20511;-65
2023/08/23 04:16:15;;;;;;;14.32;12.35;;;;;;;;;;5080466;28;20532;-65
2023/08/23 04:18:43;;;;;;;13.32;12.13;;;;;;;;;;5083066;28;20431;-63
2023/08/23 04:21:10;;;;;;;19.80;12.82;;;;;;;;;;5081376;28;21375;-63
2023/08/23 04:23:37;;;;;;;12.80;11.50;;;;;;;;;;5082150;28;20421;-63
2023/08/23 04:26:04;;;;;;;14.27;12.00;;;;;;;;;;5083865;28;20450;-63
2023/08/23 04:28:33;;;;;;;12.40;11.20;;;;;;;;;;5081483;28;20963;-62
2023/08/23 04:31:01;;;;;;;14.02;12.25;;;;;;;;;;5078314;28;20424;-63
2023/08/23 04:33:28;;;;;;;14.75;12.85;;;;;;;;;;5080857;28;20428;-63
2023/08/23 04:35:55;;;;;;;12.53;11.27;;;;;;;;;;5081588;28;20511;-63
2023/08/23 04:38:22;;;;;;;12.18;11.00;;;;;;;;;;5082312;28;21171;-63
2023/08/23 04:40:58;;;;;;;11.88;10.57;;;;;;;;;;5079184;28;20572;-63
2023/08/23 04:43:25;;;;;;;11.20;10.00;;;;;;;;;;5077916;28;20432;-63
2023/08/23 04:45:55;;;;;;;14.93;10.68;;;;;;;;;;5083359;28;20437;-63
2023/08/23 04:48:23;;;;;;;11.43;10.38;;;;;;;;;;5082080;28;20491;-63
2023/08/23 04:50:57;;;;;;;11.90;10.70;;;;;;;;;;5078836;28;20970;-63
2023/08/23 04:53:25;;;;;;;12.98;10.50;;;;;;;;;;5079760;28;20536;-63
2023/08/23 04:55:58;;;;;;;11.05;9.95;;;;;;;;;;5080444;28;20437;-63
2023/08/23 04:58:32;;;;;;;10.55;9.55;;;;;;;;;;5082142;28;20473;-63
2023/08/23 05:01:08;;;;;;;10.00;8.48;;;;;;;;;;5080828;28;20434;-63
2023/08/23 05:03:39;;;;;;;9.52;8.63;;;;;;;;;;5089026;28;20422;-63
2023/08/23 05:06:06;;;;;;;10.50;8.95;;;;;;;;;;5095853;28;20818;-63
2023/08/23 05:08:34;;;;;;;10.25;9.02;;;;;;;;;;5080180;28;20564;-63
2023/08/23 05:11:01;;;;;;;12.25;9.57;;;;;;;;;;5081753;28;20425;-63
2023/08/23 05:13:28;;;;;;;10.93;8.60;;;;;;;;;;5082211;28;20514;-63
2023/08/23 05:15:56;;;;;;;9.45;8.55;;;;;;;;;;5081549;28;20563;-63
2023/08/23 05:18:24;;;;;;;12.18;8.88;;;;;;;;;;5084079;28;20452;-63
2023/08/23 05:20:59;;;;;;;9.95;8.95;;;;;;;;;;5075247;28;20430;-63
2023/08/23 05:23:29;;;;;;;10.93;8.50;;;;;;;;;;5081473;28;20966;-63
2023/08/23 05:25:57;;;;;;;13.00;8.43;;;;;;;;;;5077978;28;20441;-63
2023/08/23 05:28:24;;;;;;;14.48;8.38;;;;;;;;;;5084296;28;21109;-63
2023/08/23 05:30:51;;;;;;;10.63;7.72;;;;;;;;;;5065381;28;20500;-63
2023/08/23 05:33:18;;;;;;;9.00;7.43;;;;;;;;;;5062622;28;20516;-63
2023/08/23 05:35:45;;;;;;;8.55;7.65;;;;;;;;;;5081565;28;21184;-63
2023/08/23 05:38:13;;;;;;;10.10;7.67;;;;;;;;;;5079472;28;20450;-63
2023/08/23 05:40:40;;;;;;;9.40;7.60;;;;;;;;;;5061929;28;20814;-63
2023/08/23 05:43:07;;;;;;;10.03;7.93;;;;;;;;;;5076224;28;21308;-63
2023/08/23 05:45:34;;;;;;;11.15;7.68;;;;;;;;;;5083279;28;20601;-63
2023/08/23 05:48:02;;;;;;;8.95;8.05;;;;;;;;;;5077289;28;20421;-63
2023/08/23 05:50:29;;;;;;;10.20;7.60;;;;;;;;;;5076670;28;20435;-63
2023/08/23 05:52:56;;;;;;;9.50;7.82;;;;;;;;;;5068799;28;20559;-64
2023/08/23 05:55:23;;;;;;;10.83;7.20;;;;;;;;;;5074592;28;21137;-63
2023/08/23 05:57:51;;;;;;;10.47;7.50;;;;;;;;;;5079473;28;20424;-63
2023/08/23 06:00:18;;;;;;;10.82;7.07;;;;;;;;;;5076541;28;20511;-63
2023/08/23 06:02:45;;;;;;;7.53;6.22;;;;;;;;;;5054719;28;20432;-64
2023/08/23 06:05:13;;;;;;;7.70;5.77;;;;;;;;;;5078258;28;20999;-63
2023/08/23 06:07:41;;;;;;;6.80;5.32;;;;;;;;;;5081280;28;20480;-64
2023/08/23 06:10:11;;;;;;;6.72;4.93;;;;;;;;;;5082224;28;20437;-64
2023/08/23 06:12:38;;;;;;;4.63;4.22;;;;;;;;;;5070917;28;21103;-64
2023/08/23 06:15:06;;;;;;;7.68;5.03;;;;;;;;;;5070404;28;20542;-64
2023/08/23 06:17:36;;;;;;;7.32;4.57;;;;;;;;;;5080436;28;20828;-63
2023/08/23 06:20:04;;;;;;;5.13;4.50;;;;;;;;;;5078276;28;20483;-64
2023/08/23 06:22:32;;;;;;;6.88;4.90;;;;;;;;;;5079696;28;20487;-64
2023/08/23 06:24:59;;;;;;;7.70;4.32;;;;;;;;;;5079709;28;20779;-64
2023/08/23 06:27:26;;;;;;;5.35;4.50;;;;;;;;;;5079676;28;20553;-64
2023/08/23 06:29:56;;;;;;;7.03;4.35;;;;;;;;;;5080039;28;20457;-64
2023/08/23 06:32:25;;;;;;;5.07;4.30;;;;;;;;;;5079010;28;20429;-64
2023/08/23 06:34:53;;;;;;;6.50;4.60;;;;;;;;;;5079341;28;20442;-64
2023/08/23 06:37:21;;;;;;;8.95;4.45;;;;;;;;;;5078603;28;20445;-64
2023/08/23 06:39:52;;;;;;;5.05;4.53;;;;;;;;;;5080259;28;20422;-64
2023/08/23 06:42:19;;;;;;;9.18;4.75;;;;;;;;;;5082404;28;21118;-64
2023/08/23 06:44:46;;;;;;;6.28;5.03;;;;;;;;;;5081322;28;20419;-64
2023/08/23 06:47:14;;;;;;;6.40;4.72;;;;;;;;;;5079938;28;20509;-65
2023/08/23 06:49:41;;;;;;;6.07;4.88;;;;;;;;;;5070345;28;20620;-65
2023/08/23 06:52:08;;;;;;;6.07;5.00;;;;;;;;;;5078801;28;20437;-65
2023/08/23 06:54:35;;;;;;;6.60;4.87;;;;;;;;;;5081974;28;20435;-65
2023/08/23 06:57:02;;;;;;;11.43;5.38;;;;;;;;;;5079173;28;20533;-64
2023/08/23 06:59:30;;;;;;;8.02;5.00;;;;;;;;;;5076897;28;20432;-65
2023/08/23 07:01:57;;;;;;;6.70;4.82;;;;;;;;;;5073481;28;20521;-64
2023/08/23 07:04:24;;;;;;;6.63;5.22;;;;;;;;;;5082486;27;20467;-64
2023/08/23 07:06:51;;;;;;;8.52;5.15;;;;;;;;;;5062134;28;21198;-64
2023/08/23 07:09:18;;;;;;;7.28;4.68;;;;;;;;;;5077845;28;20429;-64
2023/08/23 07:11:45;;;;;;;6.28;4.80;;;;;;;;;;5056768;28;20686;-63
2023/08/23 07:14:13;;;;;;;5.07;4.30;;;;;;;;;;5072953;28;20518;-64
2023/08/23 07:16:40;;;;;;;12.00;4.90;;;;;;;;;;5075949;28;20426;-65
2023/08/23 07:19:08;;;;;;;9.18;5.32;;;;;;;;;;5078659;28;21151;-65
2023/08/23 07:21:35;;;;;;;10.50;5.15;;;;;;;;;;5078435;28;20521;-65
2023/08/23 07:24:02;;;;;;;5.10;4.60;;;;;;;;;;5070327;27;20442;-65
2023/08/23 07:26:30;;;;;;;5.78;4.57;;;;;;;;;;5078529;28;20936;-65
2023/08/23 07:28:57;;;;;;;8.00;4.47;;;;;;;;;;5076612;28;20440;-65
2023/08/23 07:31:24;;;;;;;6.72;4.60;;;;;;;;;;5076617;27;20428;-64
2023/08/23 07:33:51;;;;;;;5.25;4.30;;;;;;;;;;5085951;28;20465;-64
2023/08/23 07:36:18;;;;;;;7.30;4.72;;;;;;;;;;5078416;27;20425;-65
2023/08/23 07:38:45;;;;;;;8.07;4.40;;;;;;;;;;5067982;28;20473;-64
2023/08/23 07:41:13;;;;;;;6.00;4.57;;;;;;;;;;5079890;28;20522;-65
2023/08/23 07:43:40;;;;;;;7.10;4.40;;;;;;;;;;5070590;27;20467;-65
2023/08/23 07:46:07;;;;;;;6.30;4.50;;;;;;;;;;5074356;27;21068;-65
2023/08/23 07:48:34;;;;;;;7.65;4.38;;;;;;;;;;5076321;28;20777;-64
2023/08/23 07:51:03;;;;;;;6.87;4.57;;;;;;;;;;5078412;28;20988;-65
2023/08/23 07:53:30;;;;;;;7.30;4.60;;;;;;;;;;5073604;28;20430;-64
2023/08/23 07:55:57;;;;;;;4.78;4.30;;;;;;;;;;5074798;28;20707;-64
2023/08/23 07:58:24;;;;;;;7.63;3.90;;;;;;;;;;5077216;27;20524;-65
2023/08/23 08:00:52;;;;;;;4.70;3.78;;;;;;;;;;5070370;27;20436;-64
2023/08/23 08:03:19;;;;;;;6.85;4.05;;;;;;;;;;5072319;28;21240;-64
2023/08/23 08:05:46;;;;;;;7.47;4.30;;;;;;;;;;5080112;28;20776;-64
2023/08/23 08:08:14;;;;;;;7.35;3.90;;;;;;;;;;5075986;28;20525;-64
2023/08/23 08:10:41;;;;;;;6.03;3.80;;;;;;;;;;5074058;28;20598;-65
2023/08/23 08:13:09;;;;;;;5.28;4.30;;;;;;;;;;5074288;27;20438;-64
2023/08/23 08:15:39;;;;;;;6.50;4.45;;;;;;;;;;5079184;28;20437;-65
2023/08/23 08:18:06;;;;;;;8.57;4.32;;;;;;;;;;5061921;28;20492;-63
2023/08/23 08:20:33;;;;;;;6.57;4.40;;;;;;;;;;5064745;28;20432;-64
2023/08/23 08:23:00;;;;;;;7.78;3.90;;;;;;;;;;5076357;28;20541;-65
2023/08/23 08:25:28;;;;;;;5.10;3.90;;;;;;;;;;5076315;27;20425;-65
2023/08/23 08:27:55;;;;;;;6.20;3.40;;;;;;;;;;5080129;28;21180;-65
2023/08/23 08:30:22;;;;;;;8.02;3.25;;;;;;;;;;5076368;28;20430;-65
2023/08/23 08:32:50;;;;;;;5.85;3.75;;;;;;;;;;5077097;28;20465;-65
2023/08/23 08:35:17;;;;;;;7.35;4.15;;;;;;;;;;5068611;27;20420;-65
2023/08/23 08:37:44;;;;;;;5.32;3.00;;;;;;;;;;5073760;28;20511;-64
2023/08/23 08:40:11;;;;;;;3.95;3.03;;;;;;;;;;5074952;28;20448;-64
2023/08/23 08:42:39;;;;;;;5.50;3.75;;;;;;;;;;5078189;28;20425;-64
2023/08/23 08:45:07;;;;;;;8.40;3.60;;;;;;;;;;5068409;28;21159;-64
2023/08/23 08:47:34;;;;;;;3.42;3.00;;;;;;;;;;5074475;28;20600;-64
2023/08/23 08:50:01;;;;;;;4.80;3.20;;;;;;;;;;5067249;28;20484;-65
2023/08/23 08:52:30;;;;;;;3.70;3.40;;;;;;;;;;5070125;28;21611;-64
2023/08/23 08:54:57;;;;;;;9.98;3.55;;;;;;;;;;5074944;28;20573;-64
2023/08/23 08:57:27;;;;;;;7.35;3.97;;;;;;;;;;5070601;28;20434;-63
2023/08/23 08:59:54;;;;;;;6.35;3.60;;;;;;;;;;5075564;28;20429;-64
2023/08/23 09:02:23;;;;;;;6.65;3.45;;;;;;;;;;5073318;28;20507;-63
2023/08/23 09:04:51;;;;;;;5.60;3.70;;;;;;;;;;5072462;28;20468;-64
2023/08/23 09:07:18;;;;;;;4.75;3.35;;;;;;;;;;5085496;28;20479;-64
2023/08/23 09:09:45;;;;;;;7.38;3.50;;;;;;;;;;5086805;28;20425;-63
2023/08/23 09:12:12;;;;;;;6.65;3.42;;;;;;;;;;5091744;28;20467;-64
2023/08/23 09:14:40;;;;;;;8.43;3.20;;;;;;;;;;5088880;28;20585;-64
2023/08/23 09:17:07;;;;;;;5.17;3.17;;;;;;;;;;5090937;28;20490;-64
2023/08/23 09:19:38;;;;;;;5.88;3.28;;;;;;;;;;5083855;28;20828;-63
2023/08/23 09:22:05;;;;;;;6.63;2.85;;;;;;;;;;5084953;28;20428;-64
2023/08/23 09:24:34;;;;;;;5.00;2.95;;;;;;;;;;5087619;28;20451;-64
2023/08/23 09:27:02;;;;;;;5.70;3.20;;;;;;;;;;5087074;28;21237;-64
2023/08/23 09:29:29;;;;;;;7.15;2.55;;;;;;;;;;5081525;28;20500;-64
2023/08/23 09:31:59;;;;;;;6.15;3.30;;;;;;;;;;5082655;28;20425;-64
2023/08/23 09:34:27;;;;;;;5.25;3.35;;;;;;;;;;5079286;27;20429;-64
2023/08/23 09:37:07;;;;;;;4.35;2.90;;;;;;;;;;5086790;28;20553;-64
2023/08/23 09:39:34;;;;;;;4.82;2.75;;;;;;;;;;5069179;28;20463;-64
2023/08/23 09:42:08;;;;;;;5.50;2.80;;;;;;;;;;5082048;28;20441;-64
2023/08/23 09:44:37;;;;;;;4.00;2.70;;;;;;;;;;5071310;28;20430;-64
2023/08/23 09:47:05;;;;;;;4.57;3.00;;;;;;;;;;5075748;28;20528;-63
2023/08/23 09:49:38;;;;;;;5.43;2.75;;;;;;;;;;5081727;28;20441;-63
2023/08/23 09:52:06;;;;;;;3.42;2.80;;;;;;;;;;5078957;28;20513;-64
2023/08/23 09:54:45;;;;;;;5.82;2.90;;;;;;;;;;5078697;28;20433;-64
2023/08/23 09:57:30;;;;;;;3.10;2.80;;;;;;;;;;5076354;28;20439;-63
2023/08/23 09:59:59;;;;;;;4.65;3.17;;;;;;;;;;5076627;28;20436;-65
2023/08/23 10:02:29;;;;;;;4.10;2.78;;;;;;;;;;5074650;28;20433;-64
2023/08/23 10:04:56;;;;;;;4.32;2.58;;;;;;;;;;5077273;28;20438;-65
2023/08/23 10:07:25;;;;;;;3.75;2.40;;;;;;;;;;5074607;28;20442;-63
2023/08/23 10:09:55;;;;;;;5.03;2.55;;;;;;;;;;5079178;28;20440;-65
2023/08/23 10:12:23;;;;;;;5.50;2.40;;;;;;;;;;5064562;28;20946;-65
2023/08/23 10:14:51;;;;;;;9.63;3.17;;;;;;;;;;5071113;28;20437;-65
2023/08/23 10:17:20;;;;;;;6.05;2.05;;;;;;;;;;5077948;27;20433;-64
2023/08/23 10:19:50;;;;;;;3.67;1.80;;;;;;;;;;5082669;28;20568;-65
2023/08/23 10:22:18;;;;;;;3.88;1.80;;;;;;;;;;5078707;28;20441;-64
2023/08/23 10:24:48;;;;;;;2.47;1.80;;;;;;;;;;5079911;28;20422;-65
2023/08/23 10:27:18;;;;;;;3.42;1.90;;;;;;;;;;5058065;28;20502;-65
2023/08/23 10:29:51;;;;;;;3.50;2.42;;;;;;;;;;5080218;28;20532;-65
2023/08/23 10:32:19;;;;;;;2.00;1.90;;;;;;;;;;5078000;28;20437;-65
2023/08/23 10:34:47;;;;;;;4.90;1.70;;;;;;;;;;5072157;27;20426;-64
2023/08/23 10:37:17;;;;;;;3.80;2.10;;;;;;;;;;5071880;28;23058;-63
2023/08/23 10:39:48;;;;;;;3.65;1.85;;;;;;;;;;5072532;28;20512;-64
2023/08/23 10:42:18;;;;;;;2.78;1.98;;;;;;;;;;5074139;28;20429;-64
2023/08/23 10:44:59;;;;;;;2.10;1.90;;;;;;;;;;5082697;28;20467;-64
2023/08/23 10:47:28;;;;;;;4.07;2.17;;;;;;;;;;5080591;28;20508;-63
2023/08/23 10:49:58;;;;;;;2.80;1.80;;;;;;;;;;5085658;28;20432;-65
2023/08/23 10:52:27;;;;;;;3.97;2.08;;;;;;;;;;5079680;27;20511;-64
2023/08/23 10:54:54;;;;;;;2.20;1.83;;;;;;;;;;5077180;28;20552;-64
2023/08/23 10:57:21;;;;;;;3.92;2.00;;;;;;;;;;5079309;27;20549;-64
2023/08/23 10:59:48;;;;;;;3.78;2.40;;;;;;;;;;5076451;28;20437;-64
2023/08/23 11:02:15;;;;;;;2.20;2.00;;;;;;;;;;5078464;28;20432;-64
2023/08/23 11:04:43;;;;;;;3.60;2.28;;;;;;;;;;5079594;27;20587;-64
2023/08/23 11:07:11;;;;;;;3.85;2.70;;;;;;;;;;5080643;28;20453;-65
2023/08/23 11:09:38;;;;;;;4.95;2.20;;;;;;;;;;5080466;28;20436;-64
2023/08/23 11:12:06;;;;;;;7.22;2.25;;;;;;;;;;5079010;28;20447;-65
2023/08/23 11:14:34;;;;;;;5.07;2.25;;;;;;;;;;5078765;28;20524;-65
2023/08/23 11:17:04;;;;;;;2.97;1.98;;;;;;;;;;5081356;28;20429;-66
2023/08/23 11:19:31;;;;;;;2.67;2.20;;;;;;;;;;5080206;28;20434;-64
2023/08/23 11:22:00;;;;;;;3.00;2.42;;;;;;;;;;5079812;28;20432;-66
2023/08/23 11:24:30;;;;;;;5.17;2.40;;;;;;;;;;5078624;28;20433;-64
2023/08/23 11:26:58;;;;;;;6.43;2.10;;;;;;;;;;5075147;28;20444;-64
2023/08/23 11:29:25;;;;;;;2.92;1.67;;;;;;;;;;5080038;28;20489;-65
2023/08/23 11:31:53;;;;;;;3.72;2.00;;;;;;;;;;5078413;28;21002;-66
2023/08/23 11:34:20;;;;;;;3.05;2.00;;;;;;;;;;5078313;28;20461;-65
2023/08/23 11:36:47;;;;;;;2.60;2.00;;;;;;;;;;5081785;28;20931;-64
2023/08/23 11:39:16;;;;;;;5.00;1.92;;;;;;;;;;5079100;28;20440;-65
2023/08/23 11:41:43;;;;;;;2.80;2.00;;;;;;;;;;5080769;28;20540;-64
2023/08/23 11:44:10;;;;;;;3.55;2.30;;;;;;;;;;5079834;28;20515;-64
2023/08/23 11:46:38;;;;;;;3.33;2.13;;;;;;;;;;5078854;28;20430;-64
2023/08/23 11:49:08;;;;;;;5.07;2.00;;;;;;;;;;5070105;28;20578;-64
2023/08/23 11:51:46;;;;;;;5.72;1.95;;;;;;;;;;5078639;28;20416;-64
2023/08/23 11:54:14;;;;;;;2.75;1.90;;;;;;;;;;5077570;28;20527;-63
2023/08/23 11:56:44;;;;;;;4.63;2.00;;;;;;;;;;5079653;28;21184;-64
2023/08/23 11:59:12;;;;;;;6.40;1.80;;;;;;;;;;5079602;28;20476;-63
2023/08/23 12:01:43;;;;;;;4.15;1.98;;;;;;;;;;5080636;28;20890;-63
2023/08/23 12:04:11;;;;;;;4.05;1.60;;;;;;;;;;5079812;28;20437;-64
2023/08/23 12:06:39;;;;;;;4.77;2.20;;;;;;;;;;5061100;28;20429;-63
2023/08/23 12:09:10;;;;;;;2.97;2.00;;;;;;;;;;5091249;28;20431;-63
2023/08/23 12:11:39;;;;;;;3.78;1.85;;;;;;;;;;5087500;28;20428;-64
2023/08/23 12:14:07;;;;;;;4.57;1.77;;;;;;;;;;5078033;28;21077;-65
2023/08/23 12:16:35;;;;;;;3.70;1.63;;;;;;;;;;5078852;28;20423;-65
2023/08/23 12:19:02;;;;;;;3.08;1.70;;;;;;;;;;5076029;28;20424;-64
2023/08/23 12:21:43;;;;;;;1.70;1.60;;;;;;;;;;5079803;28;20430;-64
2023/08/23 12:24:10;;;;;;;1.88;1.40;;;;;;;;;;5079351;28;20607;-65
2023/08/23 12:26:38;;;;;;;2.75;1.60;;;;;;;;;;5079122;28;20420;-65
2023/08/23 12:29:05;;;;;;;2.70;1.40;;;;;;;;;;5077423;28;21199;-65
2023/08/23 12:31:32;;;;;;;4.57;1.83;;;;;;;;;;5075487;27;20528;-64
2023/08/23 12:34:00;;;;;;;3.00;1.75;;;;;;;;;;5082744;28;20960;-65
2023/08/23 12:36:27;;;;;;;3.03;1.73;;;;;;;;;;5093364;28;21070;-65
2023/08/23 12:38:54;;;;;;;3.40;1.83;;;;;;;;;;5106056;27;20430;-65
2023/08/23 12:41:21;;;;;;;2.78;1.60;;;;;;;;;;5095975;27;20427;-63
2023/08/23 12:43:48;;;;;;;3.92;1.73;;;;;;;;;;5072809;28;20428;-65
2023/08/23 12:46:16;;;;;;;3.08;1.50;;;;;;;;;;5115258;27;20428;-65
2023/08/23 12:48:44;;;;;;;3.13;1.63;;;;;;;;;;5098601;27;20425;-65
2023/08/23 12:51:11;;;;;;;1.92;1.65;;;;;;;;;;5093771;28;20424;-65
2023/08/23 12:53:38;;;;;;;3.63;1.70;;;;;;;;;;5110416;27;20421;-66
2023/08/23 12:56:08;;;;;;;3.20;1.70;;;;;;;;;;5092421;27;20483;-66
2023/08/23 12:58:35;;;;;;;4.03;1.60;;;;;;;;;;5077560;28;20432;-66
2023/08/23 13:01:03;;;;;;;3.05;1.63;;;;;;;;;;5093707;28;20541;-63
2023/08/23 13:03:30;;;;;;;4.65;1.83;;;;;;;;;;5091001;28;20458;-66
2023/08/23 13:05:57;;;;;;;7.00;1.90;;;;;;;;;;5088651;28;20425;-66
2023/08/23 13:08:24;;;;;;;4.63;1.60;;;;;;;;;;5094982;28;20430;-65
2023/08/23 13:10:52;;;;;;;3.40;1.80;;;;;;;;;;5096025;28;20890;-64
2023/08/23 13:13:19;;;;;;;3.92;1.70;;;;;;;;;;5099629;28;20437;-65
2023/08/23 13:15:46;;;;;;;2.83;1.75;;;;;;;;;;5096144;28;20934;-63
2023/08/23 13:18:14;;;;;;;2.17;1.38;;;;;;;;;;5101518;27;20420;-64
2023/08/23 13:20:45;;;;;;;1.92;1.60;;;;;;;;;;5113301;27;20457;-64
2023/08/23 13:23:13;;;;;;;1.75;1.60;;;;;;;;;;5085490;28;20433;-65
2023/08/23 13:25:40;;;;;;;4.55;1.70;;;;;;;;;;5093866;28;20426;-65
2023/08/23 13:28:08;;;;;;;2.15;1.60;;;;;;;;;;5087119;28;20454;-64
2023/08/23 13:30:35;;;;;;;2.00;1.77;;;;;;;;;;5096329;27;20796;-64
2023/08/23 13:33:06;;;;;;;4.97;2.00;;;;;;;;;;5107658;27;20428;-65
2023/08/23 13:35:34;;;;;;;2.80;1.90;;;;;;;;;;5098348;28;20434;-65
2023/08/23 13:38:01;;;;;;;2.70;1.70;;;;;;;;;;5092259;28;20520;-63
2023/08/23 13:40:28;;;;;;;2.95;1.65;;;;;;;;;;5094832;28;20429;-63
2023/08/23 13:42:55;;;;;;;4.05;1.70;;;;;;;;;;5099888;28;20488;-65
2023/08/23 13:45:43;;;;;;;4.13;1.73;;;;;;;;;;5113688;28;20424;-65
2023/08/23 13:48:10;;;;;;;2.33;1.70;;;;;;;;;;5088888;28;20444;-65
2023/08/23 13:50:37;;;;;;;2.80;1.75;;;;;;;;;;5092328;27;20466;-65
2023/08/23 13:53:05;;;;;;;3.42;1.80;;;;;;;;;;5097658;28;20516;-65
2023/08/23 13:55:33;;;;;;;3.90;1.83;;;;;;;;;;5093437;27;20978;-66
2023/08/23 13:58:00;;;;;;;3.50;2.10;;;;;;;;;;5116891;27;20534;-65
2023/08/23 14:00:27;;;;;;;2.47;1.92;;;;;;;;;;5106422;27;20873;-66
2023/08/23 14:02:57;;;;;;;5.13;1.90;;;;;;;;;;5114350;27;20430;-66
2023/08/23 14:05:24;;;;;;;1.98;1.88;;;;;;;;;;5109461;27;20424;-66
2023/08/23 14:07:51;;;;;;;3.08;2.33;;;;;;;;;;5105448;28;20453;-65
2023/08/23 14:10:19;;;;;;;2.72;2.15;;;;;;;;;;5097160;28;20924;-64
2023/08/23 14:12:46;;;;;;;3.80;2.03;;;;;;;;;;5101741;28;20436;-64
2023/08/23 14:15:13;;;;;;;2.20;1.98;;;;;;;;;;5114780;27;20514;-65
2023/08/23 14:17:47;;;;;;;5.60;2.10;;;;;;;;;;5112735;27;21047;-65
2023/08/23 14:20:17;;;;;;;3.10;2.20;;;;;;;;;;5115187;27;20508;-66
2023/08/23 14:22:45;;;;;;;4.25;2.08;;;;;;;;;;5104844;27;20419;-65
2023/08/23 14:25:12;;;;;;;3.83;1.70;;;;;;;;;;5090966;28;20444;-66
2023/08/23 14:27:40;;;;;;;5.10;1.75;;;;;;;;;;5099168;28;20883;-66
2023/08/23 14:30:07;;;;;;;3.95;2.45;;;;;;;;;;5093872;28;20972;-66
2023/08/23 14:32:35;;;;;;;2.42;2.00;;;;;;;;;;5095485;28;20937;-66
2023/08/23 14:35:03;;;;;;;2.95;1.98;;;;;;;;;;5089882;28;21229;-66
2023/08/23 14:37:37;;;;;;;2.50;2.10;;;;;;;;;;5089947;28;20473;-66
2023/08/23 14:40:04;;;;;;;3.30;2.10;;;;;;;;;;5101802;28;20426;-66
2023/08/23 14:42:31;;;;;;;7.43;2.17;;;;;;;;;;5089438;28;20442;-66
2023/08/23 14:44:58;;;;;;;3.88;1.92;;;;;;;;;;5092640;27;20522;-66